Time;durP1;ratioP1;P1;durP2;ratioP2;P2;SDS_P1;SDS_P2;PMS_P1;PMS_P2;Temp;Humidity;BMP_temperature;BMP_pressure;BME280_temperature;BME280_humidity;BME280_pressure;Samples;Min_cycle;Max_cycle;Signal;HPM_P1;HPM_P2
2022/03/23 00:01:14;;;;;;;39.65;24.27;;;;;;;5.56;70.01;102816.78;4984045;28;20422;-77
2022/03/23 00:03:40;;;;;;;37.47;24.40;;;;;;;5.51;70.44;102816.00;4987721;28;20041;-77
2022/03/23 00:06:06;;;;;;;39.75;22.60;;;;;;;5.47;70.32;102814.28;4989066;28;20056;-77
2022/03/23 00:08:31;;;;;;;37.47;22.42;;;;;;;5.44;69.74;102814.34;4981234;28;20046;-77
2022/03/23 00:10:57;;;;;;;36.95;22.95;;;;;;;5.39;69.75;102814.44;4976043;28;20026;-77
2022/03/23 00:13:22;;;;;;;34.33;23.08;;;;;;;5.34;70.69;102818.97;4973082;28;20037;-77
2022/03/23 00:15:48;;;;;;;40.03;23.10;;;;;;;5.30;70.12;102819.97;4987731;28;20139;-77
2022/03/23 00:18:13;;;;;;;38.70;22.67;;;;;;;5.27;70.49;102813.81;4987496;28;20109;-77
2022/03/23 00:20:40;;;;;;;47.22;23.75;;;;;;;5.22;70.50;102813.91;4986785;28;20462;-77
2022/03/23 00:23:06;;;;;;;43.08;24.90;;;;;;;5.17;70.58;102816.66;4983931;28;20034;-77
2022/03/23 00:25:31;;;;;;;37.67;22.90;;;;;;;5.12;71.02;102820.31;4990196;28;20519;-77
2022/03/23 00:27:57;;;;;;;39.03;25.08;;;;;;;5.08;71.25;102820.38;4981399;28;20029;-77
2022/03/23 00:30:23;;;;;;;37.35;22.77;;;;;;;5.03;71.12;102816.03;4970930;28;20575;-77
2022/03/23 00:32:49;;;;;;;40.83;22.30;;;;;;;4.99;71.36;102817.91;4975470;28;20438;-77
2022/03/23 00:35:14;;;;;;;40.92;24.83;;;;;;;4.99;70.65;102824.97;4988152;28;20042;-77
2022/03/23 00:37:39;;;;;;;45.85;23.98;;;;;;;5.00;71.84;102822.28;4988409;28;20434;-77
2022/03/23 00:40:05;;;;;;;37.25;24.67;;;;;;;5.01;71.34;102818.72;4981174;28;20031;-77
2022/03/23 00:42:30;;;;;;;36.25;22.60;;;;;;;5.00;71.53;102816.09;4977592;28;20042;-77
2022/03/23 00:44:57;;;;;;;40.25;23.40;;;;;;;5.01;71.02;102823.19;4980946;28;20401;-77
2022/03/23 00:47:22;;;;;;;38.65;24.23;;;;;;;4.99;71.45;102819.66;4970699;28;20041;-77
2022/03/23 00:49:47;;;;;;;40.00;25.08;;;;;;;4.97;71.85;102813.50;4982469;28;20390;-77
2022/03/23 00:52:13;;;;;;;42.00;24.58;;;;;;;4.93;72.79;102814.44;4971399;28;20073;-77
2022/03/23 00:54:38;;;;;;;43.00;25.30;;;;;;;4.89;72.21;102814.50;4983320;28;20064;-77
2022/03/23 00:57:05;;;;;;;42.33;24.85;;;;;;;4.87;72.25;102820.75;4983510;28;20038;-77
2022/03/23 00:59:31;;;;;;;37.13;23.02;;;;;;;4.81;72.72;102819.06;4984188;28;20030;-77
2022/03/23 01:01:56;;;;;;;40.78;24.33;;;;;;;4.73;73.22;102821.00;4982033;28;20034;-77
2022/03/23 01:04:22;;;;;;;43.90;25.45;;;;;;;4.65;73.09;102813.13;4976549;28;20035;-77
2022/03/23 01:06:47;;;;;;;42.88;24.67;;;;;;;4.61;72.95;102814.13;4972936;28;20030;-77
2022/03/23 01:09:13;;;;;;;43.38;24.20;;;;;;;4.53;73.46;102814.22;4970372;28;20487;-77
2022/03/23 01:11:39;;;;;;;40.78;24.95;;;;;;;4.47;73.82;102814.31;4971822;28;20483;-77
2022/03/23 01:14:05;;;;;;;38.75;23.40;;;;;;;4.44;72.85;102809.06;4978273;28;20454;-77
2022/03/23 01:16:31;;;;;;;40.72;24.48;;;;;;;4.44;73.84;102813.50;4979435;28;20027;-77
2022/03/23 01:18:56;;;;;;;37.15;24.17;;;;;;;4.38;73.70;102804.69;4989985;28;20402;-77
2022/03/23 01:21:22;;;;;;;42.47;24.27;;;;;;;4.35;73.97;102803.88;4988224;28;20030;-77
2022/03/23 01:23:47;;;;;;;39.38;23.08;;;;;;;4.31;74.50;102811.00;4980289;28;20031;-77
2022/03/23 01:26:13;;;;;;;43.53;23.80;;;;;;;4.29;74.89;102811.94;4979976;28;20219;-77
2022/03/23 01:28:38;;;;;;;41.85;24.27;;;;;;;4.22;74.16;102800.53;4973583;28;20121;-77
2022/03/23 01:31:03;;;;;;;36.90;22.95;;;;;;;4.18;74.77;102801.47;4984076;28;20030;-77
2022/03/23 01:33:28;;;;;;;39.45;23.50;;;;;;;4.17;74.98;102794.38;4986607;28;20046;-77
2022/03/23 01:35:54;;;;;;;41.45;23.23;;;;;;;4.13;74.62;102795.31;4975952;28;20030;-77
2022/03/23 01:38:19;;;;;;;42.17;24.52;;;;;;;4.10;74.46;102790.94;4985319;28;20091;-77
2022/03/23 01:40:44;;;;;;;43.00;25.60;;;;;;;4.06;75.03;102801.66;4992991;28;20121;-77
2022/03/23 01:43:10;;;;;;;41.13;24.20;;;;;;;4.03;75.15;102797.25;4985439;28;20033;-77
2022/03/23 01:45:35;;;;;;;46.55;26.65;;;;;;;4.01;75.66;102797.28;4985789;28;20402;-77
2022/03/23 01:48:00;;;;;;;41.20;25.52;;;;;;;3.99;75.21;102784.91;4992281;28;20371;-77
2022/03/23 01:50:26;;;;;;;43.22;25.52;;;;;;;3.94;75.24;102787.63;4987534;28;20117;-77
2022/03/23 01:52:51;;;;;;;43.80;25.95;;;;;;;3.90;75.87;102791.22;4990387;28;20030;-77
2022/03/23 01:55:17;;;;;;;44.95;25.00;;;;;;;3.85;75.75;102791.28;4980605;28;20444;-77
2022/03/23 01:57:51;;;;;;;43.30;26.38;;;;;;;3.86;75.55;102778.88;4985931;28;20030;-77
2022/03/23 02:00:16;;;;;;;40.55;23.23;;;;;;;3.89;74.29;102777.94;4974798;28;20492;-77
2022/03/23 02:02:43;;;;;;;41.10;24.83;;;;;;;3.93;74.54;102779.66;4977151;28;20038;-77
2022/03/23 02:05:09;;;;;;;37.95;24.20;;;;;;;3.97;73.37;102778.72;4974878;28;20041;-77
2022/03/23 02:07:35;;;;;;;41.63;24.73;;;;;;;3.98;75.38;102783.13;4974678;28;20471;-77
2022/03/23 02:10:00;;;;;;;39.35;21.98;;;;;;;3.99;75.08;102779.56;4984405;28;20023;-77
2022/03/23 02:12:30;;;;;;;35.17;22.70;;;;;;;3.96;74.43;102779.63;4989583;28;20093;-77
2022/03/23 02:14:55;;;;;;;41.83;23.48;;;;;;;3.94;75.19;102776.97;4981626;28;20034;-77
2022/03/23 02:17:20;;;;;;;42.55;26.92;;;;;;;3.92;74.97;102783.22;4986198;28;20364;-77
2022/03/23 02:19:46;;;;;;;34.85;22.65;;;;;;;3.88;74.52;102778.84;4972288;28;20027;-77
2022/03/23 02:22:11;;;;;;;39.83;22.73;;;;;;;3.83;75.51;102789.53;4983795;28;20836;-77
2022/03/23 02:24:36;;;;;;;38.97;23.48;;;;;;;3.78;75.57;102780.78;4981059;28;20078;-77
2022/03/23 02:27:02;;;;;;;38.92;23.15;;;;;;;3.72;75.94;102786.16;4982141;28;20117;-77
2022/03/23 02:29:31;;;;;;;38.05;22.35;;;;;;;3.68;76.12;102785.31;4979969;28;20474;-77
2022/03/23 02:31:58;;;;;;;42.38;23.92;;;;;;;3.64;75.34;102789.78;4976373;28;20050;-77
2022/03/23 02:34:27;;;;;;;39.22;22.60;;;;;;;3.61;75.60;102781.84;4973161;28;20061;-77
2022/03/23 02:36:52;;;;;;;37.92;22.52;;;;;;;3.61;76.13;102783.63;4988709;28;20035;-77
2022/03/23 02:39:18;;;;;;;39.80;23.67;;;;;;;3.54;76.25;102782.81;4981297;28;20085;-77
2022/03/23 02:41:43;;;;;;;37.78;22.10;;;;;;;3.47;76.77;102783.78;4980750;28;20406;-77
2022/03/23 02:44:15;;;;;;;35.50;23.63;;;;;;;3.44;75.41;102784.75;4991409;28;20030;-77
2022/03/23 02:46:40;;;;;;;40.53;23.63;;;;;;;3.46;75.81;102782.06;4991239;28;20030;-77
2022/03/23 02:49:05;;;;;;;37.38;21.85;;;;;;;3.46;76.56;102779.41;4984767;28;20026;-77
2022/03/23 02:51:31;;;;;;;37.33;22.80;;;;;;;3.43;75.77;102777.66;4992200;28;20120;-77
2022/03/23 03:02:39;;;;;;;34.95;20.20;;;;;;;3.43;75.50;102780.31;4986258;28;20034;-77
2022/03/23 03:05:06;;;;;;;44.35;24.40;;;;;;;3.39;75.09;102783.91;4980705;28;20085;-77
2022/03/23 03:08:44;;;;;;;37.00;22.35;;;;;;;3.38;76.15;102776.81;4973019;28;20030;-77
2022/03/23 03:10:18;;;;;;;33.85;20.92;;;;;;;3.30;76.07;102787.53;4985838;28;20517;-77
2022/03/23 03:12:43;;;;;;;40.20;21.80;;;;;;;3.23;76.20;102771.69;4988423;28;20023;-77
2022/03/23 03:15:12;;;;;;;37.03;22.73;;;;;;;3.24;76.96;102776.13;4981311;28;20030;-77
2022/03/23 03:17:38;;;;;;;35.75;22.70;;;;;;;3.26;76.76;102779.63;4986852;28;20053;-77
2022/03/23 03:20:04;;;;;;;40.92;21.52;;;;;;;3.24;77.07;102787.63;4980440;28;20125;-77
2022/03/23 03:22:34;;;;;;;42.78;22.25;;;;;;;3.22;77.26;102783.22;4985565;28;20030;-77
2022/03/23 03:24:59;;;;;;;38.72;22.48;;;;;;;3.22;76.69;102786.78;4987535;28;20065;-77
2022/03/23 03:27:24;;;;;;;37.85;22.00;;;;;;;3.20;76.53;102788.56;4983956;28;20395;-77
2022/03/23 03:29:49;;;;;;;38.03;21.67;;;;;;;3.20;77.08;102793.00;4981664;28;20030;-77
2022/03/23 03:32:14;;;;;;;39.65;23.27;;;;;;;3.19;77.48;102785.91;4989564;28;20030;-77
2022/03/23 03:34:40;;;;;;;37.60;21.10;;;;;;;3.18;77.32;102792.13;4981457;28;20032;-77
2022/03/23 03:37:05;;;;;;;36.85;21.85;;;;;;;3.13;76.95;102793.06;4971310;28;20066;-77
2022/03/23 03:39:30;;;;;;;39.75;22.30;;;;;;;3.10;76.65;102786.88;4988092;28;20034;-77
2022/03/23 03:41:56;;;;;;;35.13;20.83;;;;;;;3.07;77.05;102793.09;4983775;28;20483;-77
2022/03/23 03:44:24;;;;;;;39.22;21.67;;;;;;;3.04;76.88;102789.63;4982544;28;20476;-77
2022/03/23 03:46:49;;;;;;;40.90;23.05;;;;;;;3.03;77.08;102791.41;4986180;28;20157;-77
2022/03/23 03:49:15;;;;;;;39.10;21.90;;;;;;;3.00;77.10;102786.09;4975553;28;20063;-77
2022/03/23 03:51:42;;;;;;;35.45;21.17;;;;;;;2.96;77.20;102784.41;4986972;28;20375;-77
2022/03/23 03:54:07;;;;;;;37.85;20.90;;;;;;;2.89;77.23;102790.66;4981098;28;20034;-77
2022/03/23 03:56:33;;;;;;;39.75;22.02;;;;;;;2.84;76.72;102789.81;4972130;28;20032;-77
2022/03/23 03:58:58;;;;;;;42.67;21.98;;;;;;;2.81;77.80;102793.38;4976010;28;20042;-77
2022/03/23 04:01:24;;;;;;;38.22;21.35;;;;;;;2.79;77.55;102795.16;4976793;28;20037;-77
2022/03/23 04:03:49;;;;;;;33.88;19.58;;;;;;;2.75;77.86;102794.34;4980255;28;20038;-77
2022/03/23 04:06:14;;;;;;;39.85;20.80;;;;;;;2.71;77.99;102787.28;4975772;28;20034;-77
2022/03/23 04:08:39;;;;;;;36.55;22.75;;;;;;;2.66;77.98;102796.19;4968914;28;20031;-77
2022/03/23 04:11:05;;;;;;;39.70;21.33;;;;;;;2.62;77.98;102790.00;4971270;28;20033;-77
2022/03/23 04:13:30;;;;;;;38.67;21.38;;;;;;;2.61;78.27;102798.88;4975624;28;20034;-77
2022/03/23 04:15:55;;;;;;;35.35;21.00;;;;;;;2.58;78.77;102799.78;4982456;28;20077;-77
2022/03/23 04:18:24;;;;;;;35.42;20.58;;;;;;;2.56;78.79;102796.28;4976265;28;20479;-77
2022/03/23 04:20:49;;;;;;;34.25;20.85;;;;;;;2.56;78.57;102792.72;4990489;28;20120;-77
2022/03/23 04:23:15;;;;;;;41.85;22.80;;;;;;;2.55;78.68;102796.28;4988746;28;20110;-77
2022/03/23 04:25:40;;;;;;;36.88;21.33;;;;;;;2.50;78.10;102787.47;4981050;28;20062;-77
2022/03/23 04:28:06;;;;;;;38.55;21.92;;;;;;;2.44;78.52;102793.69;4981877;28;20037;-77
2022/03/23 04:30:31;;;;;;;41.25;22.33;;;;;;;2.39;78.88;102793.75;4988229;28;20038;-77
2022/03/23 04:32:57;;;;;;;39.97;23.75;;;;;;;2.41;79.17;102797.25;4977575;28;20027;-77
2022/03/23 04:35:23;;;;;;;45.50;22.98;;;;;;;2.46;79.44;102799.91;4970148;28;20029;-77
2022/03/23 04:37:49;;;;;;;40.17;24.52;;;;;;;2.52;79.54;102798.94;4969634;28;20034;-77
2022/03/23 04:40:17;;;;;;;40.30;23.30;;;;;;;2.55;77.95;102797.16;4971770;28;20051;-77
2022/03/23 04:42:44;;;;;;;37.50;20.73;;;;;;;2.58;78.49;102796.25;4982439;28;20042;-77
2022/03/23 04:45:10;;;;;;;39.83;24.60;;;;;;;2.60;78.30;102805.06;4984841;28;20045;-77
2022/03/23 04:47:36;;;;;;;40.58;23.63;;;;;;;2.62;77.76;102805.94;4989903;28;20030;-77
2022/03/23 04:50:07;;;;;;;37.20;21.73;;;;;;;2.60;77.76;102805.06;4989961;28;20081;-77
2022/03/23 04:52:33;;;;;;;39.20;22.95;;;;;;;2.60;77.80;102807.72;4986400;28;20034;-77
2022/03/23 04:54:58;;;;;;;39.25;21.55;;;;;;;2.55;77.69;102814.88;4986859;28;20037;-77
2022/03/23 04:57:24;;;;;;;34.38;21.20;;;;;;;2.49;77.42;102812.22;4985513;28;20149;-77
2022/03/23 04:59:51;;;;;;;37.15;22.83;;;;;;;2.47;77.69;102814.03;4988203;28;20478;-77
2022/03/23 05:02:16;;;;;;;44.13;22.63;;;;;;;2.41;77.70;102821.13;4989415;28;20033;-77
2022/03/23 05:04:43;;;;;;;39.50;24.10;;;;;;;2.41;78.24;102828.22;4988051;28;20379;-77
2022/03/23 05:07:08;;;;;;;38.65;23.30;;;;;;;2.41;78.05;102826.44;4982424;28;20121;-77
2022/03/23 05:09:33;;;;;;;42.83;24.77;;;;;;;2.39;78.30;102828.25;4972808;28;20050;-77
2022/03/23 05:11:58;;;;;;;39.83;22.17;;;;;;;2.38;78.62;102829.13;4987738;28;20441;-77
2022/03/23 05:14:24;;;;;;;38.70;21.55;;;;;;;2.38;79.08;102830.91;4977739;28;20061;-77
2022/03/23 05:16:49;;;;;;;44.72;23.60;;;;;;;2.37;78.04;102832.69;4981704;28;20045;-77
2022/03/23 05:19:14;;;;;;;40.28;22.73;;;;;;;2.37;78.17;102835.34;4978337;28;20491;-77
2022/03/23 05:21:39;;;;;;;40.22;23.65;;;;;;;2.36;78.39;102825.59;4975114;28;20416;-77
2022/03/23 05:24:05;;;;;;;41.17;24.38;;;;;;;2.35;77.81;102828.28;4972887;28;20034;-77
2022/03/23 05:26:30;;;;;;;36.30;21.80;;;;;;;2.36;77.57;102835.34;4982460;28;20030;-77
2022/03/23 05:28:56;;;;;;;40.15;22.75;;;;;;;2.39;77.73;102832.69;4984983;28;20147;-77
2022/03/23 05:31:24;;;;;;;43.45;24.38;;;;;;;2.40;78.47;102827.34;4954753;28;20057;-77
2022/03/23 05:33:49;;;;;;;37.50;23.02;;;;;;;2.37;78.01;102834.44;4972086;28;20067;-77
2022/03/23 05:36:14;;;;;;;40.13;23.23;;;;;;;2.31;77.42;102832.72;4971062;28;20109;-77
2022/03/23 05:38:40;;;;;;;41.22;23.67;;;;;;;2.27;77.53;102829.22;4975382;28;20085;-77
2022/03/23 05:41:05;;;;;;;42.47;23.63;;;;;;;2.24;77.56;102831.88;4991172;28;20045;-77
2022/03/23 05:43:30;;;;;;;41.42;23.55;;;;;;;2.23;76.75;102826.59;4979366;28;20035;-77
2022/03/23 05:45:56;;;;;;;37.92;22.67;;;;;;;2.27;77.00;102838.94;4985690;28;20044;-77
2022/03/23 05:48:24;;;;;;;35.50;20.67;;;;;;;2.30;78.30;102833.63;4983353;28;20034;-77
2022/03/23 05:50:49;;;;;;;41.58;22.98;;;;;;;2.31;78.46;102838.00;4990198;28;20034;-77
2022/03/23 05:53:15;;;;;;;37.25;21.30;;;;;;;2.29;78.54;102839.81;4987001;28;20617;-77
2022/03/23 05:55:40;;;;;;;46.38;26.42;;;;;;;2.29;78.31;102839.81;4987820;28;20117;-77
2022/03/23 05:58:05;;;;;;;38.03;22.42;;;;;;;2.35;77.61;102844.19;4982583;28;20026;-77
2022/03/23 06:00:31;;;;;;;39.20;23.00;;;;;;;2.36;78.08;102846.84;4996659;28;20042;-77
2022/03/23 06:02:56;;;;;;;37.78;23.52;;;;;;;2.34;78.76;102851.25;4980405;28;20060;-77
2022/03/23 06:05:22;;;;;;;39.30;22.85;;;;;;;2.34;78.31;102847.72;4988289;28;20033;-77
2022/03/23 06:07:47;;;;;;;40.10;23.67;;;;;;;2.32;79.18;102850.41;4982409;28;20031;-77
2022/03/23 06:10:12;;;;;;;40.95;23.40;;;;;;;2.32;79.31;102854.84;4992183;28;20034;-77
2022/03/23 06:12:38;;;;;;;42.45;24.83;;;;;;;2.34;77.80;102853.03;4975034;28;20038;-77
2022/03/23 06:15:05;;;;;;;42.08;24.25;;;;;;;2.36;77.57;102848.63;4988093;28;20026;-77
2022/03/23 06:17:31;;;;;;;45.15;24.77;;;;;;;2.41;78.18;102852.97;4980351;28;20042;-77
2022/03/23 06:19:56;;;;;;;42.95;24.25;;;;;;;2.45;78.78;102854.72;4991309;28;20038;-78
2022/03/23 06:22:21;;;;;;;38.70;23.95;;;;;;;2.44;78.72;102855.59;4987945;28;20038;-77
2022/03/23 06:24:46;;;;;;;41.47;22.92;;;;;;;2.47;79.17;102860.03;4984207;28;20046;-77
2022/03/23 06:27:12;;;;;;;45.17;25.48;;;;;;;2.55;77.93;102857.34;4991059;28;20022;-77
2022/03/23 06:29:38;;;;;;;43.80;25.35;;;;;;;2.61;77.75;102857.28;4990188;28;20097;-77
2022/03/23 06:32:03;;;;;;;43.40;25.25;;;;;;;2.69;78.51;102857.22;4993273;28;20019;-77
2022/03/23 06:34:29;;;;;;;43.05;26.33;;;;;;;2.75;77.98;102850.09;4990537;28;20117;-77
2022/03/23 06:36:54;;;;;;;38.92;25.38;;;;;;;2.84;78.88;102861.50;4989502;28;20030;-77
2022/03/23 06:39:19;;;;;;;48.35;26.45;;;;;;;2.90;78.21;102864.09;4977897;28;20062;-77
2022/03/23 06:41:44;;;;;;;42.30;25.52;;;;;;;2.99;77.26;102861.38;4979637;28;20430;-77
2022/03/23 06:44:10;;;;;;;43.58;25.85;;;;;;;3.04;76.97;102867.53;4982923;28;20040;-77
2022/03/23 06:46:37;;;;;;;48.33;25.60;;;;;;;3.10;77.74;102872.78;4988137;28;20512;-77
2022/03/23 06:49:02;;;;;;;44.63;26.50;;;;;;;3.18;77.90;102869.16;4981609;28;20518;-77
2022/03/23 06:51:28;;;;;;;46.20;28.33;;;;;;;3.27;78.06;102874.41;4991764;28;20057;-77
2022/03/23 06:53:53;;;;;;;41.60;26.80;;;;;;;3.38;77.79;102877.81;4980405;28;20019;-77
2022/03/23 06:56:19;;;;;;;46.92;27.65;;;;;;;3.47;76.71;102883.06;4987347;28;20467;-77
2022/03/23 06:58:44;;;;;;;41.70;26.67;;;;;;;3.55;76.56;102877.66;4990479;28;20061;-78
2022/03/23 07:01:09;;;;;;;50.33;28.77;;;;;;;3.65;76.61;102879.31;4975743;28;20478;-78
2022/03/23 07:03:35;;;;;;;46.45;29.75;;;;;;;3.74;76.68;102883.63;4983014;28;20030;-77
2022/03/23 07:06:00;;;;;;;47.95;29.20;;;;;;;3.84;76.71;102879.97;4980516;28;20034;-78
2022/03/23 07:11:09;;;;;;;44.85;27.45;;;;;;;4.03;76.69;102887.72;4987742;28;20104;-77
2022/03/23 07:13:38;;;;;;;46.55;26.75;;;;;;;4.10;75.58;102884.06;4987651;28;20784;-77
2022/03/23 07:16:03;;;;;;;43.22;27.58;;;;;;;4.18;75.34;102887.50;4989211;28;20080;-77
2022/03/23 07:18:29;;;;;;;50.40;30.08;;;;;;;4.26;74.91;102881.19;4990088;28;20442;-77
2022/03/23 07:20:54;;;;;;;43.20;28.02;;;;;;;4.34;74.67;102887.28;4978491;28;20085;-77
2022/03/23 07:23:19;;;;;;;45.45;28.10;;;;;;;4.42;74.53;102889.84;4974279;28;20112;-78
2022/03/23 07:25:45;;;;;;;47.20;27.08;;;;;;;4.50;74.59;102888.81;4974352;28;20047;-77
2022/03/23 07:28:10;;;;;;;49.90;30.17;;;;;;;4.59;74.00;102886.94;4975120;28;20027;-77
2022/03/23 07:30:37;;;;;;;48.88;30.27;;;;;;;4.71;76.00;102889.41;4987588;28;20639;-78
2022/03/23 07:33:03;;;;;;;42.10;28.17;;;;;;;4.80;74.43;102886.59;4983523;28;20019;-78
2022/03/23 07:35:28;;;;;;;45.50;29.45;;;;;;;4.88;72.55;102895.34;4974718;28;20045;-78
2022/03/23 07:37:53;;;;;;;47.40;28.65;;;;;;;5.01;72.29;102897.81;4982078;28;20042;-78
2022/03/23 07:40:19;;;;;;;43.97;29.00;;;;;;;5.08;71.33;102894.09;4981620;28;20026;-78
2022/03/23 07:42:44;;;;;;;43.33;28.73;;;;;;;5.17;70.94;102895.72;4987491;28;20146;-79
2022/03/23 07:45:10;;;;;;;48.97;30.42;;;;;;;5.24;70.58;102895.63;4992099;28;20097;-78
2022/03/23 07:47:35;;;;;;;44.40;27.60;;;;;;;5.32;70.90;102900.81;4990912;28;20506;-78
2022/03/23 07:50:01;;;;;;;49.50;27.98;;;;;;;5.43;70.06;102900.59;4989060;28;20117;-78
2022/03/23 07:52:26;;;;;;;51.70;28.65;;;;;;;5.52;70.35;102903.09;4989732;28;20119;-78
2022/03/23 07:54:52;;;;;;;53.28;29.48;;;;;;;5.64;68.72;102906.41;4976703;28;20026;-78
2022/03/23 07:57:17;;;;;;;43.08;27.73;;;;;;;5.76;68.78;102909.72;4988809;28;20022;-79
2022/03/23 07:59:43;;;;;;;38.88;26.08;;;;;;;5.86;68.39;102907.78;4977612;28;20537;-78
2022/03/23 08:02:09;;;;;;;50.53;28.33;;;;;;;5.95;69.21;102909.38;4976150;28;20525;-79
2022/03/23 08:04:34;;;;;;;43.83;27.77;;;;;;;6.04;68.08;102911.00;4971382;28;20050;-79
2022/03/23 08:07:01;;;;;;;39.35;26.75;;;;;;;6.12;67.24;102912.59;4975525;28;20031;-77
2022/03/23 08:09:27;;;;;;;42.67;27.55;;;;;;;6.22;66.36;102910.63;4973992;28;20038;-77
2022/03/23 08:11:52;;;;;;;47.45;27.95;;;;;;;6.29;66.74;102908.69;4983728;28;20065;-77
2022/03/23 08:14:17;;;;;;;48.38;27.63;;;;;;;6.40;65.57;102911.09;4978059;28;20348;-77
2022/03/23 08:16:43;;;;;;;49.13;28.52;;;;;;;6.54;64.73;102908.13;4990008;28;20029;-77
2022/03/23 08:19:08;;;;;;;42.88;27.33;;;;;;;6.62;64.92;102904.34;4981717;28;20542;-77
2022/03/23 08:21:34;;;;;;;46.17;28.65;;;;;;;6.77;63.64;102904.91;4975107;28;20145;-79
2022/03/23 08:24:00;;;;;;;42.83;27.33;;;;;;;6.86;63.92;102904.69;4980734;28;20050;-79
2022/03/23 08:26:25;;;;;;;47.63;27.45;;;;;;;6.91;64.55;102909.91;4987554;28;20070;-78
2022/03/23 08:28:51;;;;;;;46.88;27.30;;;;;;;6.97;63.70;102910.66;4996814;28;20037;-78
2022/03/23 08:31:17;;;;;;;47.58;28.48;;;;;;;7.00;62.82;102902.53;5001568;28;20061;-76
2022/03/23 08:33:42;;;;;;;44.63;28.10;;;;;;;7.06;62.92;102911.31;4985525;28;20485;-77
2022/03/23 08:36:08;;;;;;;41.03;27.92;;;;;;;7.11;62.61;102910.28;4993893;28;20301;-77
2022/03/23 08:38:34;;;;;;;41.42;25.42;;;;;;;7.14;62.50;102912.00;4998971;28;20034;-78
2022/03/23 08:41:00;;;;;;;42.70;27.92;;;;;;;7.20;62.63;102911.84;4999589;28;20074;-78
2022/03/23 08:43:25;;;;;;;41.13;26.20;;;;;;;7.27;61.99;102912.56;5002206;28;20048;-78
2022/03/23 08:45:51;;;;;;;42.58;26.48;;;;;;;7.29;61.32;102906.28;4999006;28;20032;-78
2022/03/23 08:48:18;;;;;;;43.35;30.27;;;;;;;7.34;61.30;102915.03;5005377;28;20037;-78
2022/03/23 08:50:45;;;;;;;45.25;28.88;;;;;;;7.46;60.11;102915.63;5001037;28;20030;-78
2022/03/23 08:53:10;;;;;;;43.47;28.17;;;;;;;7.58;60.36;102917.09;5003907;28;20444;-78
2022/03/23 08:55:35;;;;;;;47.70;27.58;;;;;;;7.63;60.91;102916.06;4999105;28;20034;-78
2022/03/23 08:58:01;;;;;;;41.85;27.35;;;;;;;7.73;59.25;102905.97;4995446;28;20092;-77
2022/03/23 09:00:26;;;;;;;45.45;28.20;;;;;;;7.83;59.35;102906.56;4989693;28;20037;-78
2022/03/23 09:02:52;;;;;;;46.03;29.70;;;;;;;8.00;59.36;102917.66;4995566;28;20024;-79
2022/03/23 09:05:19;;;;;;;42.85;29.58;;;;;;;8.03;60.05;102906.88;5001549;28;20104;-77
2022/03/23 09:07:44;;;;;;;42.50;25.85;;;;;;;8.02;59.01;102910.50;4995092;28;20542;-77
2022/03/23 09:10:13;;;;;;;41.40;28.73;;;;;;;8.05;60.96;102910.41;4997116;28;20423;-77
2022/03/23 09:12:38;;;;;;;47.42;29.35;;;;;;;8.17;60.09;102910.94;4998585;28;20074;-78
2022/03/23 09:15:06;;;;;;;42.42;27.85;;;;;;;8.30;59.43;102915.03;4991335;28;21286;-79
2022/03/23 09:17:31;;;;;;;55.75;30.90;;;;;;;8.47;61.62;102908.28;4992712;28;20030;-79
2022/03/23 09:19:57;;;;;;;45.00;30.17;;;;;;;8.67;61.72;102913.88;4991407;28;20438;-79
2022/03/23 09:22:22;;;;;;;44.83;30.70;;;;;;;8.81;59.59;102915.25;4995542;28;20018;-78
2022/03/23 09:24:48;;;;;;;43.58;28.83;;;;;;;8.83;58.59;102908.00;4992967;28;20411;-77
2022/03/23 09:27:14;;;;;;;45.75;29.33;;;;;;;8.90;59.34;102907.78;5001929;28;20530;-76
2022/03/23 09:29:39;;;;;;;47.28;29.23;;;;;;;9.02;58.90;102910.97;4995350;28;20029;-76
2022/03/23 09:32:09;;;;;;;45.08;30.17;;;;;;;9.09;59.03;102913.41;5003147;28;20425;-76
2022/03/23 09:34:39;;;;;;;44.53;30.63;;;;;;;9.30;59.29;102902.88;5008491;28;20047;-76
2022/03/23 09:39:51;;;;;;;45.50;31.27;;;;;;;9.50;58.72;102903.94;4995474;28;20532;-77
2022/03/23 09:42:20;;;;;;;44.85;30.67;;;;;;;9.68;58.06;102905.97;4971331;28;20787;-77
2022/03/23 09:44:47;;;;;;;47.83;29.65;;;;;;;9.82;56.80;102908.16;5002382;28;20036;-77
2022/03/23 09:47:12;;;;;;;37.95;26.65;;;;;;;9.87;52.98;102910.66;5010141;28;20030;-77
2022/03/23 09:49:38;;;;;;;36.85;24.33;;;;;;;9.95;50.16;102909.44;4994041;28;20695;-77
2022/03/23 09:52:05;;;;;;;39.08;24.98;;;;;;;10.02;50.66;102912.78;5006546;28;20133;-76
2022/03/23 09:54:30;;;;;;;39.00;24.30;;;;;;;10.05;49.73;102909.09;4988676;28;20037;-77
2022/03/23 09:56:56;;;;;;;37.58;22.80;;;;;;;10.18;48.45;102905.00;4998147;28;20033;-77
2022/03/23 09:59:21;;;;;;;44.20;23.92;;;;;;;10.32;47.47;102910.72;5000491;28;20026;-77
2022/03/23 10:01:46;;;;;;;41.47;22.33;;;;;;;10.46;47.53;102907.50;4992624;28;20109;-76
2022/03/23 10:04:46;;;;;;;38.38;22.25;;;;;;;10.53;50.49;102904.56;4999111;28;20404;-76
2022/03/23 10:07:46;;;;;;;35.25;21.00;;;;;;;10.56;51.76;102910.72;4992263;28;20137;-76
2022/03/23 10:10:30;;;;;;;;;;;;;;;10.51;47.93;102917.22;4997338;28;20069;-76
2022/03/23 10:13:30;;;;;;;35.28;21.08;;;;;;;10.85;48.37;102908.66;5003421;28;19953;-77
2022/03/23 10:16:26;;;;;;;36.47;22.02;;;;;;;10.99;47.75;102916.16;4995857;28;20482;-77
2022/03/23 10:18:52;;;;;;;34.60;21.23;;;;;;;11.09;46.67;102913.94;5002524;28;20033;-77
2022/03/23 10:21:31;;;;;;;34.28;21.58;;;;;;;11.16;46.66;102920.81;4995172;28;20481;-78
2022/03/23 10:24:02;;;;;;;35.92;21.77;;;;;;;11.27;42.35;102917.66;5008648;28;20493;-78
2022/03/23 10:26:31;;;;;;;34.78;21.88;;;;;;;11.35;44.77;102915.53;5005321;28;20073;-78
2022/03/23 10:28:58;;;;;;;38.45;21.92;;;;;;;11.56;43.20;102910.13;4990842;28;20545;-78
2022/03/23 10:31:25;;;;;;;38.65;24.02;;;;;;;11.61;45.73;102917.06;4996426;28;20358;-78
2022/03/23 10:33:57;;;;;;;37.25;22.70;;;;;;;11.72;43.57;102913.88;5007091;28;20018;-78
2022/03/23 10:36:26;;;;;;;35.80;20.95;;;;;;;11.81;44.72;102908.06;5002173;28;20057;-78
2022/03/23 10:38:58;;;;;;;39.50;24.43;;;;;;;11.86;42.76;102914.13;5002858;28;20092;-78
2022/03/23 10:41:27;;;;;;;41.22;24.55;;;;;;;11.98;42.52;102903.78;4999314;28;20658;-78
2022/03/23 10:43:52;;;;;;;38.72;24.05;;;;;;;12.09;41.98;102900.56;5002169;28;20034;-78
2022/03/23 10:46:20;;;;;;;39.67;24.52;;;;;;;12.20;40.97;102899.13;5003078;28;20029;-78
2022/03/23 10:48:59;;;;;;;37.40;23.05;;;;;;;12.27;42.30;102894.31;5006157;28;20033;-78
2022/03/23 10:51:36;;;;;;;35.13;21.65;;;;;;;12.29;43.48;102897.81;4998589;28;20536;-78
2022/03/23 10:54:23;;;;;;;37.53;23.60;;;;;;;12.38;42.59;102897.34;4983185;28;20114;-78
2022/03/23 10:56:49;;;;;;;37.47;22.45;;;;;;;12.45;41.99;102894.38;4998246;28;20045;-78
2022/03/23 10:59:23;;;;;;;36.38;21.90;;;;;;;12.65;39.47;102898.78;5008491;28;20037;-78
2022/03/23 11:01:55;;;;;;;34.95;21.65;;;;;;;12.67;41.15;102892.38;4997458;28;20533;-78
2022/03/23 11:04:21;;;;;;;35.38;20.83;;;;;;;12.70;42.23;102894.06;5006289;28;20113;-79
2022/03/23 11:06:46;;;;;;;37.20;22.05;;;;;;;12.77;42.35;102890.97;5003720;28;20084;-79
2022/03/23 11:15:46;;;;;;;42.33;22.17;;;;;;;12.79;41.80;102888.19;5001017;28;20087;-78
2022/03/23 11:18:06;;;;;;;32.78;19.40;;;;;;;12.94;44.28;102890.13;4989339;28;20153;-79
2022/03/23 11:20:51;;;;;;;30.73;18.02;;;;;;;12.99;40.54;102889.00;4988451;28;20486;-79
2022/03/23 11:23:20;;;;;;;31.80;18.65;;;;;;;13.08;38.35;102886.69;4993634;28;20040;-78
2022/03/23 11:25:48;;;;;;;39.40;18.80;;;;;;;13.18;38.16;102888.94;5001395;28;20050;-79
2022/03/23 11:28:14;;;;;;;31.83;16.48;;;;;;;13.20;43.43;102885.19;4999515;28;20022;-78
2022/03/23 11:30:40;;;;;;;31.13;17.02;;;;;;;13.20;42.67;102879.78;5002971;28;20031;-78
2022/03/23 11:33:09;;;;;;;31.80;19.58;;;;;;;13.33;39.26;102884.56;5003189;28;20044;-78
2022/03/23 11:35:36;;;;;;;31.88;18.30;;;;;;;13.42;36.70;102884.13;4998325;28;20470;-79